Date,TemperatureHighF,TemperatureAvgF,TemperatureLowF,DewpointHighF,DewpointAvgF,DewpointLowF,HumidityHigh,HumidityAvg,HumidityLow,PressureMaxIn,PressureMinIn,WindSpeedMaxMPH,WindSpeedAvgMPH,GustSpeedMaxMPH,PrecipitationSumIn
2013-1-1,38.8,32.3,25.5,32.9,27.4,20.8,85,82,77,30.47,30.35,14,0,114,0.00
2013-1-2,38.3,29.3,23.5,30.4,23.5,19.1,85,79,70,30.35,30.20,14,0,114,0.00
2013-1-3,37.9,29.1,20.5,33.5,23.5,15.5,84,80,73,30.30,30.16,14,0,114,0.00
2013-1-4,54.3,41.3,31.8,43.6,35.2,27.9,88,79,66,30.34,30.18,14,0,114,0.00
2013-1-5,40.6,38.2,34.3,36.7,34.3,30.2,87,86,83,30.22,30.17,0,0,0,0.00
2013-1-6,52.3,42.8,36.5,44.7,37.3,32.9,88,81,67,30.27,30.16,0,0,0,0.00
2013-1-7,53.4,48.6,45.0,46.8,42.6,37.9,83,80,74,30.27,30.12,14,0,114,0.00
2013-1-8,55.6,49.7,43.5,45.6,42.5,38.0,84,76,69,30.27,29.98,0,0,0,0.00
2013-1-9,47.8,41.3,34.3,41.6,36.3,29.9,84,82,75,30.03,29.81,57,0,57,0.00
2013-1-10,45.7,36.4,31.6,39.9,31.8,27.7,87,83,79,30.17,30.02,57,1,114,0.00
2013-1-11,43.5,35.2,27.1,37.9,28.6,21.1,85,77,63,30.33,30.16,0,0,0,0.00
2013-1-12,37.2,28.3,22.8,30.0,22.6,17.9,84,79,73,30.43,30.32,14,0,114,0.00
2013-1-13,30.0,28.0,27.0,24.9,23.2,22.4,84,82,79,30.52,30.42,14,0,114,0.00
2013-1-14,41.4,31.7,27.1,30.5,24.9,22.3,83,76,64,30.60,30.51,14,0,114,0.00
2013-1-15,37.2,32.1,25.5,31.9,27.0,20.5,85,81,77,30.67,30.58,14,0,114,0.00
2013-1-16,34.3,32.5,31.3,31.1,29.1,28.1,88,87,85,30.68,30.52,0,0,0,0.00
2013-1-17,32.7,31.2,29.7,29.8,28.1,26.6,89,88,88,30.52,30.35,0,0,0,0.00
2013-1-18,33.4,31.1,29.1,30.5,28.0,26.0,89,88,88,30.35,30.30,0,0,0,0.00
2013-1-19,34.3,30.9,28.0,31.4,27.8,24.9,89,88,88,30.37,30.30,0,0,0,0.00
2013-1-20,30.4,28.5,27.3,27.3,25.4,24.2,89,88,88,30.39,30.27,0,0,0,0.00
2013-1-21,32.2,28.9,26.4,29.1,25.9,23.3,89,88,87,30.29,30.19,0,0,0,0.00
2013-1-22,31.1,28.7,25.7,28.0,25.6,22.6,89,88,88,30.19,29.97,14,0,114,0.00
2013-1-23,36.0,33.4,30.4,33.0,30.3,27.3,89,88,88,30.21,29.92,0,0,0,0.00
2013-1-24,44.4,38.2,32.7,41.7,35.2,29.8,90,89,89,30.24,30.14,0,0,114,0.00
2013-1-25,51.6,45.4,36.3,49.0,42.7,33.0,91,90,88,30.18,30.01,14,0,114,0.00
2013-1-26,46.9,40.7,35.4,41.7,36.7,32.1,90,86,79,30.14,30.01,14,0,114,0.00
2013-1-27,42.3,39.4,37.6,37.5,35.4,34.0,87,86,82,30.22,30.12,0,0,0,0.00
2013-1-28,43.2,40.9,38.3,39.5,37.1,34.5,87,86,86,30.32,30.15,0,0,0,0.00
2013-1-29,47.1,43.6,37.2,42.8,39.4,33.1,87,85,83,30.56,30.31,0,0,0,0.00
2013-1-30,51.1,44.2,37.0,45.5,39.8,32.9,87,85,79,30.58,30.49,57,0,114,0.00
2013-1-31,52.3,43.9,35.8,44.3,38.8,31.1,87,82,73,30.50,30.37,57,1,114,0.00
2013-2-1,43.5,38.3,31.3,39.6,34.4,27.0,88,86,83,30.39,30.27,0,0,0,0.00
2013-2-2,51.3,41.7,36.7,44.3,37.2,32.0,89,84,77,30.35,30.28,0,0,0,0.00
2013-2-3,46.9,43.3,40.1,41.6,38.6,35.9,87,83,78,30.37,30.26,0,0,0,0.00
2013-2-4,54.9,45.2,38.5,44.8,38.7,34.3,86,78,65,30.27,29.98,0,0,0,0.00
2013-2-5,54.0,45.6,42.4,99.9,40.9,37.4,86,79,68,30.13,29.98,0,0,0,0.00
2013-2-6,55.2,46.9,40.5,44.0,38.3,33.1,85,73,56,30.16,29.89,57,0,114,0.00
2013-2-7,49.1,41.3,35.8,39.8,33.9,30.5,83,75,62,30.14,30.00,0,0,0,0.00
2013-2-8,47.7,39.1,35.4,37.2,32.7,28.5,85,78,64,30.31,30.14,0,0,0,0.00
2013-2-9,46.6,39.9,34.2,38.1,33.9,29.0,85,79,70,30.34,30.29,14,0,114,0.00
2013-2-10,45.3,42.0,39.4,39.7,36.1,34.3,86,80,73,30.36,30.31,0,0,0,0.00
2013-2-11,49.8,44.2,40.3,39.5,35.8,33.3,78,72,64,30.44,30.34,0,0,0,0.00
2013-2-12,55.8,47.6,43.2,47.5,41.6,37.8,86,80,69,30.53,30.45,0,0,0,0.00
2013-2-13,50.7,47.6,44.1,44.8,42.1,38.6,85,81,77,30.53,30.47,0,0,0,0.00
2013-2-14,62.6,38.1,40.1,99.9,55.2,35.3,86,56,59,30.59,30.47,14,0,114,0.00
2013-2-15,43.9,39.4,34.3,99.9,39.2,29.9,86,80,79,30.48,30.27,87,2,114,0.00
2013-2-16,49.6,39.8,32.7,99.9,38.1,29.0,89,82,78,30.34,30.27,0,0,0,0.00
2013-2-17,51.1,39.4,31.1,42.4,32.0,26.9,88,75,56,30.33,30.11,0,0,0,0.00
2013-2-18,47.8,37.9,30.2,36.2,30.5,24.9,84,75,63,30.11,29.77,14,0,114,0.00
2013-2-19,50.4,38.5,36.3,99.9,39.8,31.3,85,71,65,30.02,29.67,14,1,114,0.00
2013-2-20,50.7,40.5,32.2,40.5,33.7,27.3,84,77,62,30.16,30.03,14,1,114,0.31
2013-2-21,44.6,40.6,37.2,37.8,35.4,32.8,85,82,77,30.29,30.16,14,0,114,0.31
2013-2-22,46.6,42.8,37.6,39.6,36.9,32.6,84,80,71,30.27,30.01,14,2,114,0.00
2013-2-23,48.6,37.9,30.7,41.6,32.7,26.5,84,81,72,30.50,30.17,14,1,114,0.00
2013-2-24,56.8,40.9,30.6,40.1,32.6,26.6,87,73,51,30.50,30.16,14,1,114,0.00
2013-2-25,53.8,42.5,35.4,41.4,34.7,29.2,80,74,57,30.45,30.13,14,1,114,0.00
2013-2-26,52.3,39.9,29.1,39.2,31.3,23.9,84,72,56,30.44,30.28,0,0,0,0.00
2013-2-27,53.2,45.1,38.8,41.4,37.5,32.1,82,75,63,30.35,30.27,0,0,0,0.00
2013-2-28,56.5,51.9,46.6,50.0,46.1,41.1,83,81,78,30.52,30.26,14,1,114,0.00
2013-3-1,70.0,53.9,47.3,53.5,46.1,40.9,85,76,55,30.51,30.34,14,0,114,0.00
2013-3-2,54.0,49.7,43.9,47.6,43.8,38.7,83,80,77,30.34,30.21,14,0,114,0.00
2013-3-3,52.3,42.6,33.3,38.5,33.0,25.0,84,70,53,30.33,30.22,14,0,114,0.00
2013-3-4,54.7,39.3,27.1,40.4,30.8,21.1,81,72,58,30.21,29.92,0,0,0,0.00
2013-3-5,45.5,41.5,36.5,41.0,37.0,30.6,86,84,79,29.93,29.62,0,0,0,0.00
2013-3-6,47.3,41.3,35.4,42.0,36.9,31.0,87,84,77,30.01,29.56,57,1,114,0.00
2013-3-7,57.0,43.2,32.2,43.0,34.4,28.5,87,72,50,30.06,29.98,0,0,0,0.00
2013-3-8,55.2,41.6,33.4,42.3,33.8,27.6,83,74,59,30.24,30.02,0,0,0,0.00
2013-3-9,61.0,43.2,30.2,46.0,32.7,25.4,85,68,45,30.52,30.23,0,0,0,0.00
2013-3-10,61.7,48.0,32.5,43.9,36.5,26.0,81,66,46,30.54,30.41,14,0,114,0.00
2013-3-11,64.6,54.0,47.3,50.5,45.1,40.1,81,72,58,30.44,30.27,14,0,114,0.00
2013-3-12,60.4,51.0,42.4,49.8,43.9,37.0,84,77,65,30.27,30.18,14,1,114,0.00
2013-3-13,66.6,55.4,46.0,51.6,45.9,39.6,80,71,58,30.26,30.09,14,2,114,0.00
2013-3-14,60.6,52.4,44.1,49.1,43.4,38.6,84,72,56,30.25,30.08,14,1,114,0.00
2013-3-15,65.1,55.8,47.5,50.6,45.7,39.9,79,69,54,30.26,30.18,14,2,114,0.00
2013-3-16,50.7,47.3,42.3,43.5,40.8,36.8,81,78,74,30.23,30.09,14,1,114,0.00
2013-3-17,52.0,42.9,34.5,37.2,33.7,29.2,83,71,55,30.37,30.20,14,1,114,0.00
2013-3-18,54.7,42.9,30.0,40.3,32.2,23.8,81,67,55,30.32,30.13,0,0,0,0.00
2013-3-19,51.8,44.3,38.5,99.9,37.5,30.0,85,74,66,30.14,29.71,0,0,0,0.00
2013-3-20,50.9,46.7,37.9,46.5,41.4,32.2,86,82,74,30.25,29.65,0,0,0,0.00
2013-3-21,49.8,40.7,34.9,41.1,33.2,29.6,82,75,63,30.38,30.24,0,0,0,0.00
2013-3-22,41.5,36.7,35.2,34.8,30.4,28.9,80,78,74,30.40,30.35,14,0,114,0.00
2013-3-25,55.6,50.7,41.5,43.2,40.1,35.8,81,67,60,30.02,29.94,0,0,0,0.00
2013-3-26,53.4,47.4,43.2,44.7,40.4,36.6,83,77,70,30.04,29.98,0,0,0,0.00
2013-3-27,66.0,50.0,40.5,50.2,42.7,35.0,86,77,55,30.01,29.91,14,0,114,0.00
2013-3-28,64.0,53.8,47.7,52.5,46.3,42.3,86,76,60,30.16,30.00,14,0,114,0.00
2013-3-29,70.9,55.9,48.6,54.4,47.5,42.7,85,74,56,30.21,30.12,14,1,114,0.00
2013-3-30,74.5,56.4,42.6,56.7,47.2,37.5,85,72,54,30.17,29.94,14,1,114,0.00
2013-3-31,72.3,58.0,45.3,54.0,47.4,39.2,83,69,52,30.05,29.95,14,2,114,0.00
2013-4-1,62.4,54.9,49.3,51.3,47.4,42.3,81,76,66,30.21,30.04,14,3,114,0.00
2013-4-2,66.4,56.2,49.3,51.7,46.2,42.3,81,70,52,30.23,30.12,14,3,114,0.00
2013-4-3,66.4,53.3,41.5,53.0,45.2,36.1,83,75,62,30.17,29.91,14,0,114,0.00
2013-4-4,62.8,55.6,50.7,54.4,49.6,44.4,85,80,72,29.94,29.73,0,0,0,0.00
2013-4-5,59.7,53.1,48.6,49.8,46.6,43.6,84,79,67,30.01,29.89,0,0,0,0.00
2013-4-6,55.6,49.9,47.1,48.9,44.8,42.8,86,83,77,30.06,29.77,0,0,0,0.00
2013-4-7,52.3,47.0,40.5,44.6,40.1,35.0,84,77,63,30.02,29.72,14,0,114,0.00
2013-4-8,56.3,46.1,38.7,44.0,39.0,33.7,84,76,62,30.31,30.01,14,0,114,0.00
2013-4-9,59.0,49.0,39.7,44.8,40.1,34.7,85,72,56,30.38,30.27,14,0,114,0.00
2013-4-10,66.0,51.8,43.3,51.8,43.4,36.5,82,73,58,30.37,30.24,0,0,0,0.00
2013-4-11,60.6,46.8,36.7,42.2,36.3,30.3,81,68,50,30.38,30.18,0,0,0,0.00
2013-4-12,61.7,47.5,34.3,45.8,36.7,28.4,82,67,48,30.19,29.92,14,0,114,0.00
2013-4-13,56.5,45.7,36.9,40.6,34.8,27.8,76,66,52,30.16,29.97,0,0,0,0.00
2013-4-14,49.5,42.9,37.6,39.7,34.8,27.9,80,73,67,30.16,29.96,14,0,114,0.00
2013-4-15,53.4,43.4,38.3,41.7,36.0,32.9,83,76,59,30.21,29.98,0,0,0,0.00
2013-4-16,57.6,46.5,37.9,41.8,37.1,32.9,83,70,53,30.42,30.19,0,0,0,0.00
2013-4-17,64.2,47.8,34.3,42.8,36.5,28.1,81,66,42,30.53,30.42,14,1,114,0.00
2013-4-18,64.2,53.1,43.7,45.6,40.9,35.8,76,64,51,30.50,30.35,0,0,0,0.00
2013-4-19,60.3,52.1,47.8,51.8,44.8,40.4,82,76,67,30.37,30.26,14,0,114,0.00
2013-4-20,65.3,49.5,46.8,99.9,47.7,39.0,81,64,49,30.37,30.25,14,0,114,0.00
2013-4-21,176.5,30.7,46.0,99.9,70.3,38.9,79,37,58,30.33,30.23,14,0,114,0.00
2013-4-22,66.6,51.6,40.8,47.2,39.7,31.7,81,66,43,30.39,30.28,14,0,114,0.00
2013-4-23,68.2,50.9,33.4,41.5,33.8,26.3,77,54,32,30.34,30.12,0,0,0,0.00
2013-4-24,73.6,55.2,35.8,46.0,37.3,27.3,75,53,36,30.21,29.99,0,0,0,0.00
2013-4-25,76.1,58.5,39.0,47.1,40.1,30.4,74,53,33,30.14,30.01,0,0,0,0.00
2013-4-26,78.3,61.1,43.9,52.8,44.5,36.3,78,57,31,30.25,30.14,0,0,0,0.00
2013-4-27,77.4,60.8,45.3,46.9,41.0,34.9,77,51,30,30.28,30.19,0,0,0,0.00
2013-4-28,68.2,56.7,47.3,47.4,41.9,35.1,70,58,44,30.32,30.15,0,0,0,0.00
2013-4-29,61.5,53.8,42.6,46.0,40.0,30.4,79,61,45,30.24,30.14,0,0,0,0.00
2013-4-30,55.9,46.3,34.3,35.4,31.6,26.5,76,58,44,30.42,30.23,0,0,0,0.00
2013-5-1,65.5,50.1,34.3,43.8,35.6,25.8,75,59,43,30.52,30.40,0,0,0,0.00
2013-5-2,75.9,58.8,40.8,47.1,40.0,31.8,73,52,33,30.42,30.22,0,0,0,0.00
2013-5-3,74.5,61.1,44.4,50.2,43.1,34.7,73,52,41,30.30,30.09,0,0,0,0.00
2013-5-4,83.3,65.4,45.9,52.8,41.7,34.9,68,45,24,30.11,29.81,0,0,0,0.00
2013-5-5,86.5,67.5,50.4,49.7,42.7,34.5,59,42,27,29.83,29.61,14,0,114,0.00
2013-5-6,81.0,63.6,49.6,54.7,45.9,38.7,69,53,40,29.95,29.78,14,0,114,0.00
2013-5-7,75.2,59.4,47.1,54.1,45.5,38.7,75,61,45,30.07,29.93,14,0,114,0.00
2013-5-8,70.0,57.6,47.8,54.0,46.6,39.7,76,67,56,30.15,30.06,14,1,114,0.00
2013-5-9,78.6,62.3,47.5,57.1,49.3,40.8,80,64,43,30.20,30.07,0,0,0,0.00
2013-5-10,81.7,65.5,52.2,59.2,51.6,45.2,79,62,41,30.22,30.11,0,0,0,0.00
2013-5-11,84.0,68.1,53.2,59.3,53.0,45.3,77,60,41,30.22,30.01,0,0,0,0.00
2013-5-12,77.0,64.9,57.4,59.9,52.8,49.6,77,66,44,30.16,30.08,0,0,0,0.00
2013-5-13,68.7,59.4,50.2,54.0,49.3,41.5,82,70,53,30.23,30.08,0,0,0,0.00
2013-5-14,67.8,56.3,45.3,46.5,41.9,37.1,81,61,36,30.23,30.09,0,0,0,0.00
2013-5-15,63.7,54.0,48.0,49.4,42.8,35.9,73,66,56,30.14,30.03,0,0,0,0.00
2013-5-16,59.7,54.6,50.7,51.3,47.4,43.8,82,77,68,30.04,29.96,0,0,0,0.00
2013-5-17,62.1,54.5,48.0,49.3,45.0,41.3,84,71,57,30.13,30.02,0,0,0,0.00
2013-5-18,61.0,54.1,49.8,50.0,45.7,41.9,79,73,65,30.32,30.12,0,0,0,0.00
2013-5-19,66.4,56.9,50.5,50.0,46.4,40.8,80,69,51,30.42,30.31,0,0,0,0.00
2013-5-20,72.0,56.1,41.7,50.2,42.4,30.8,80,62,35,30.34,29.96,0,0,0,0.00
2013-5-21,55.0,47.7,41.9,45.7,40.0,33.0,83,75,46,30.08,29.86,14,0,14,0.00
2013-5-22,51.1,44.8,38.8,42.4,38.5,34.4,85,79,69,30.07,30.02,0,0,0,0.00
2013-5-23,58.3,49.9,44.4,45.3,41.1,38.0,82,72,57,30.08,30.04,0,0,0,0.00
2013-5-24,60.4,51.6,45.7,46.6,42.6,39.1,83,72,59,30.13,30.05,0,0,0,0.00
2013-5-25,69.6,54.3,38.5,48.3,42.7,32.9,82,67,46,30.12,29.94,0,0,0,0.00
2013-5-26,64.6,56.2,51.4,51.3,47.4,43.1,85,73,59,30.08,29.98,0,0,0,0.00
2013-5-27,63.7,55.7,50.7,56.3,49.0,43.2,86,78,70,30.04,29.80,0,0,0,0.00
2013-5-28,64.6,56.9,51.6,51.1,47.1,45.0,80,70,55,29.98,29.77,14,0,114,0.00
2013-5-29,62.4,55.0,49.3,52.3,47.6,42.3,84,76,65,30.11,29.71,0,0,0,0.00
2013-5-30,61.0,53.8,47.3,46.1,43.6,40.8,80,69,56,30.28,30.09,0,0,0,0.00
2013-5-31,68.0,56.1,43.5,50.0,44.5,37.8,81,66,49,30.34,30.22,0,0,0,0.00
2013-6-1,75.9,61.2,45.1,54.6,47.7,38.3,80,63,44,30.25,30.02,14,0,114,0.00
2013-6-2,70.5,60.6,53.8,52.1,48.5,44.9,77,65,50,30.09,30.02,14,0,114,0.00
2013-6-3,73.9,60.5,47.7,54.9,48.2,40.9,81,65,46,30.11,30.01,0,0,0,0.00
2013-6-4,78.6,64.6,50.9,55.0,49.6,42.9,76,60,39,30.08,29.97,0,0,0,0.00
2013-6-5,82.6,68.7,52.7,57.2,52.7,45.7,79,59,38,30.08,29.96,0,0,0,0.00
2013-6-6,81.1,69.1,57.6,60.2,54.1,47.9,78,60,41,30.06,29.98,0,0,0,0.00
2013-6-7,81.5,67.6,53.8,58.7,50.7,44.9,74,56,35,30.13,30.05,0,0,0,0.00
2013-6-8,78.6,65.4,53.4,53.4,48.5,42.0,76,57,29,30.16,30.03,0,0,0,0.00
2013-6-9,73.6,63.5,54.3,51.7,47.2,43.1,67,56,39,30.09,29.95,0,0,0,0.00
2013-6-10,70.3,58.0,47.8,48.1,43.4,39.0,73,59,43,30.01,29.89,0,0,0,0.00
2013-6-11,64.9,57.6,52.0,45.9,42.8,40.1,69,58,49,30.17,30.00,0,0,0,0.00
2013-6-12,64.9,56.0,47.3,46.5,43.2,38.7,75,63,50,30.22,30.15,0,0,0,0.00
2013-6-13,61.9,53.8,48.0,52.5,45.2,40.6,82,73,62,30.33,30.21,0,0,0,0.00
2013-6-14,71.2,57.0,44.2,52.2,46.1,38.2,83,68,49,30.33,29.99,14,0,114,0.00
2013-6-15,78.4,63.2,48.6,54.6,49.0,41.2,79,61,40,30.05,29.92,0,0,0,0.00
2013-6-16,75.4,61.2,48.6,54.3,48.2,41.6,79,64,47,30.16,30.04,0,0,0,0.00
2013-6-17,75.6,61.4,50.2,52.8,48.1,42.7,78,63,44,30.16,29.98,0,0,0,0.00
2013-6-18,67.6,59.5,50.0,49.5,46.2,42.0,75,62,50,30.05,29.97,0,0,0,0.00
2013-6-19,65.7,57.1,52.5,51.4,46.2,43.0,78,67,53,30.15,29.99,0,0,0,0.00
2013-6-20,65.5,58.2,51.4,52.1,47.9,42.9,76,69,57,30.15,30.08,0,0,0,0.00
2013-6-21,71.6,60.5,50.7,51.5,47.6,43.6,80,64,44,30.19,30.10,0,0,0,0.00
2013-6-22,80.2,64.9,48.7,54.3,49.0,41.4,79,59,39,30.12,29.88,0,0,0,0.00
2013-6-23,74.5,65.6,59.7,58.4,53.6,48.1,77,65,54,29.91,29.65,0,0,0,0.00
2013-6-24,65.5,59.5,54.9,53.6,51.2,48.8,82,74,61,29.75,29.70,14,0,114,0.00
2013-6-25,65.5,60.8,57.0,58.6,54.8,51.9,85,81,73,29.88,29.70,14,0,114,0.00
2013-6-26,69.6,63.6,57.6,58.0,55.5,52.6,87,76,63,30.04,29.87,0,0,0,0.00
2013-6-27,83.1,70.4,58.8,62.3,58.5,53.3,83,67,49,30.16,30.03,0,0,0,0.00
2013-6-28,71.2,63.4,58.8,61.4,55.5,52.3,81,76,68,30.16,30.13,0,0,0,0.00
2013-7-2,91.9,81.2,67.8,68.2,62.9,55.0,73,55,40,30.07,29.97,0,0,0,0.00
2013-7-3,86.2,74.1,63.1,56.3,52.5,46.7,67,49,27,30.12,30.01,0,0,0,0.00
2013-7-4,78.6,66.5,55.2,53.5,48.5,43.8,68,53,39,30.15,29.99,0,0,0,0.00
2013-7-5,75.7,64.7,53.1,52.0,48.5,43.9,72,57,40,30.07,29.92,0,0,0,0.00
2013-7-6,77.5,64.2,52.7,55.8,50.6,44.4,76,62,46,29.98,29.85,0,0,0,0.00
2013-7-7,80.8,67.1,54.3,59.0,53.3,46.5,78,62,45,29.98,29.86,0,0,0,0.00
2013-7-8,82.6,65.7,52.7,58.2,50.9,44.8,77,61,38,30.07,29.95,0,0,0,0.00
2013-7-9,89.2,73.1,57.0,61.2,54.8,48.4,75,55,32,30.08,29.96,0,0,0,0.00
2013-7-10,85.8,71.4,59.2,56.5,53.0,47.4,71,54,37,30.06,29.89,0,0,0,0.00
2013-7-11,75.7,63.6,52.7,50.0,45.9,42.4,69,54,34,30.08,29.94,0,0,0,0.00
2013-7-12,76.3,62.7,51.1,51.2,46.2,41.2,71,56,40,30.09,29.98,0,0,0,0.00
2013-7-13,80.8,65.6,51.1,51.2,45.6,41.0,70,51,32,30.14,30.00,0,0,0,0.00
2013-7-14,86.5,70.8,53.6,55.2,49.4,42.8,69,49,29,30.09,29.93,0,0,0,0.00
2013-7-15,86.2,70.6,54.5,55.3,48.4,40.0,60,46,34,30.00,29.78,0,0,0,0.00
2013-7-16,83.5,69.0,59.9,59.9,51.9,46.6,68,55,43,30.05,29.78,0,0,0,0.00
2013-7-17,78.8,66.6,58.8,56.0,51.7,48.6,70,60,43,30.16,30.04,0,0,0,0.00
2013-7-18,84.2,68.1,54.1,58.2,51.5,46.0,77,58,33,30.20,30.05,0,0,0,0.00
2013-7-19,84.0,69.5,54.3,59.3,53.6,45.5,73,58,40,30.14,29.98,0,0,0,0.00
2013-7-20,82.8,67.4,54.7,59.3,53.1,46.2,76,62,41,30.08,29.92,0,0,0,0.00
2013-7-21,85.8,70.4,55.9,57.2,53.2,47.5,74,57,36,29.98,29.85,0,0,0,0.00
2013-7-22,87.4,71.5,58.8,57.9,52.7,48.0,74,54,32,30.02,29.90,0,0,0,0.00
2013-7-23,91.6,73.0,55.4,61.4,53.3,46.0,73,53,28,30.03,29.91,0,0,0,0.00
2013-7-24,93.4,76.3,60.6,58.6,53.6,50.1,70,48,26,30.03,29.93,0,0,0,0.00
2013-7-25,92.5,75.8,59.5,56.2,51.6,47.7,68,46,25,30.07,29.97,0,0,0,0.00
2013-7-26,91.2,75.4,61.5,55.6,50.9,46.0,60,44,26,30.13,30.01,0,0,0,0.00
2013-7-27,84.4,69.1,55.9,51.2,45.9,41.0,59,45,28,30.18,29.99,0,0,0,0.00
2013-7-28,81.3,64.4,50.2,53.2,47.3,39.6,71,55,37,30.08,29.93,0,0,0,0.00
2013-7-29,79.7,64.9,53.4,55.0,49.9,44.6,73,60,42,30.06,29.93,0,0,0,0.00
2013-7-30,80.6,65.2,54.3,57.1,51.2,45.8,77,62,39,30.15,30.04,0,0,0,0.00
2013-7-31,75.0,62.7,56.8,59.2,52.7,48.6,78,70,57,30.13,30.05,0,0,0,0.00
2013-8-1,64.0,60.7,56.7,53.3,51.3,49.1,78,71,65,30.15,30.09,0,0,0,0.00
2013-8-2,75.9,64.4,55.2,54.8,51.6,47.7,78,65,46,30.16,30.06,0,0,0,0.00
2013-8-3,81.7,65.9,52.7,59.5,52.5,46.1,80,64,40,30.11,29.96,0,0,0,0.00
2013-8-4,88.9,71.4,56.1,61.0,55.7,49.1,80,60,36,30.03,29.88,0,0,0,0.00
2013-8-5,90.0,73.6,57.9,62.2,56.0,48.9,75,56,36,30.01,29.88,0,0,0,0.00
2013-8-6,91.2,74.6,58.8,60.3,53.7,48.0,76,52,26,29.99,29.88,0,0,0,0.00
2013-8-7,71.4,62.3,55.6,53.4,50.1,46.3,78,65,49,30.06,29.93,0,0,0,0.00
2013-8-8,81.3,64.9,53.8,59.1,53.1,47.1,79,67,45,30.08,29.89,0,0,0,0.00
2013-8-9,81.3,70.3,63.5,61.6,57.8,54.7,74,65,47,29.95,29.85,0,0,0,0.00
2013-8-10,76.8,64.4,56.8,60.4,54.6,50.4,80,71,55,30.07,29.92,0,0,0,0.00
2013-8-11,77.4,64.4,56.3,58.8,54.1,50.5,81,70,52,30.09,29.99,0,0,0,0.00
2013-8-12,74.1,64.0,57.7,57.5,52.6,49.5,76,67,53,30.09,30.02,0,0,0,0.00
2013-8-13,82.9,66.2,50.5,59.1,51.5,43.9,80,62,36,30.11,29.93,0,0,0,0.00
2013-8-14,84.9,69.5,54.5,56.2,52.8,46.2,74,57,37,30.00,29.93,0,0,0,0.00
2013-8-15,81.1,70.0,59.4,63.4,58.0,52.2,78,66,54,29.99,29.95,0,0,0,0.00
2013-8-16,84.4,72.2,64.2,64.1,59.2,49.0,78,65,45,30.06,29.97,0,0,0,0.00
2013-8-17,84.6,68.9,55.2,61.1,53.9,46.7,76,60,45,30.10,30.01,0,0,0,0.00
2013-8-18,84.0,69.0,56.5,61.6,55.0,48.8,79,63,41,30.15,30.02,0,0,0,0.00
2013-8-19,87.3,71.4,58.6,60.5,55.5,50.7,78,59,37,30.12,29.99,0,0,0,0.00
2013-8-20,82.8,69.2,57.9,53.1,49.8,46.5,69,52,33,30.13,29.95,0,0,0,0.00
2013-8-21,84.2,69.3,56.1,57.0,51.1,46.1,71,54,37,30.01,29.85,0,0,0,0.00
2013-8-22,82.0,70.6,62.6,60.4,55.9,51.3,69,60,47,29.93,29.87,0,0,0,0.00
2013-8-23,76.1,64.9,57.7,58.6,53.1,49.6,76,66,52,29.97,29.89,0,0,0,0.00
2013-8-24,75.9,65.8,58.3,57.1,53.1,49.3,77,65,49,29.93,29.84,0,0,0,0.00
2013-8-25,67.6,61.1,56.3,58.3,53.3,47.9,84,76,64,29.96,29.90,0,0,0,0.00
2013-8-26,82.0,66.1,56.5,59.1,53.7,49.5,86,67,40,29.98,29.91,0,0,0,0.00
2013-8-27,84.9,66.8,55.4,60.2,53.7,48.4,80,64,43,29.98,29.78,0,0,0,0.00
2013-8-28,82.6,69.4,59.5,61.0,57.0,53.4,81,66,48,29.91,29.83,0,0,0,0.00
2013-8-29,82.2,68.8,62.6,65.4,59.5,55.8,82,73,52,30.09,29.86,0,0,0,0.00
2013-8-30,83.1,70.8,64.2,62.5,58.9,53.4,83,68,47,30.15,30.02,0,0,0,0.00
2013-8-31,91.9,69.4,56.1,65.5,55.9,48.6,79,63,41,30.04,29.83,0,0,0,0.00
2013-9-1,88.7,68.4,55.0,59.7,53.1,47.6,79,60,38,29.92,29.79,0,0,0,0.00
2013-9-2,76.8,68.5,62.1,57.4,54.4,51.0,73,61,48,29.95,29.88,0,0,0,0.00
2013-9-3,80.8,68.0,59.5,55.5,52.5,49.2,70,58,41,30.02,29.94,0,0,0,0.00
2013-9-4,74.1,66.9,61.7,56.4,54.1,51.2,73,64,53,30.05,29.99,0,0,0,0.00
2013-9-5,66.4,60.7,57.9,56.5,53.5,49.8,86,77,65,30.11,30.01,14,0,114,0.00
2013-9-6,76.8,63.2,57.4,60.4,55.2,50.9,88,76,54,30.19,30.10,0,0,0,0.00
2013-9-7,80.2,62.1,55.0,62.5,54.0,49.1,85,76,55,30.11,29.95,14,0,114,0.00
2013-9-8,85.6,65.7,53.2,65.0,55.7,48.2,86,72,50,30.06,29.96,0,0,0,0.00
2013-9-9,88.7,68.6,54.9,63.9,56.8,49.1,84,68,44,30.02,29.88,0,0,0,0.00
2013-9-10,89.4,70.4,57.9,67.7,59.7,52.0,83,70,49,29.90,29.75,0,0,0,0.00
2013-9-11,95.0,70.5,59.4,67.6,58.2,52.1,83,67,41,29.99,29.78,0,0,0,0.00
2013-9-12,83.5,66.5,58.3,64.5,56.2,51.3,81,70,52,30.01,29.90,0,0,0,0.06
2013-9-13,77.5,64.8,57.0,63.5,56.3,50.7,84,74,61,29.97,29.82,14,0,114,0.06
2013-9-14,69.6,62.5,58.8,61.1,56.9,53.2,87,82,74,29.85,29.72,0,0,0,0.00
2013-9-15,67.3,61.7,58.8,57.2,54.4,51.4,83,77,69,29.94,29.75,0,0,0,0.00
2013-9-16,73.2,63.2,56.3,56.0,52.6,49.6,80,69,54,30.00,29.90,0,0,0,0.00
2013-9-17,64.6,59.2,54.0,56.8,52.0,48.6,86,77,67,30.05,29.86,14,0,114,0.02
2013-9-18,71.2,59.7,52.0,54.3,49.7,44.0,85,71,51,30.11,30.00,0,0,0,0.02
2013-9-19,78.4,59.7,45.5,56.6,47.9,40.0,84,67,44,30.01,29.79,0,0,0,0.00
2013-9-20,68.9,56.9,48.6,54.2,48.9,41.9,84,75,56,29.81,29.67,14,0,114,0.04
2013-9-21,63.7,57.1,53.8,54.9,51.7,48.7,88,83,70,29.83,29.69,14,0,114,0.04
2013-9-22,62.8,56.3,53.8,52.6,49.6,47.9,86,79,64,29.93,29.74,0,0,0,0.00
2013-9-23,61.3,56.6,52.0,53.1,50.8,47.9,87,81,71,30.02,29.93,0,0,0,0.00
2013-9-24,61.3,53.7,49.1,53.0,48.9,44.9,87,84,72,30.01,29.90,0,0,0,0.00
2013-9-25,58.6,50.9,47.1,48.4,44.9,42.8,86,80,66,30.06,29.90,14,0,114,0.00
2013-9-26,63.5,52.8,46.0,50.9,45.0,40.1,88,76,55,30.20,30.06,14,0,114,0.00
2013-9-27,56.8,50.5,43.5,50.7,45.1,38.1,86,82,73,30.21,30.00,14,0,114,0.12
2013-9-28,66.7,58.7,50.5,55.2,51.8,46.6,87,78,66,30.02,29.60,0,0,0,0.04
2013-9-29,55.4,52.3,50.7,52.2,48.5,46.6,89,87,83,29.80,29.53,0,0,0,0.02
2013-9-30,57.4,52.2,49.3,50.4,46.8,44.1,88,82,74,30.05,29.66,0,0,0,0.00
2013-10-1,60.6,51.4,43.2,50.1,44.4,37.9,84,77,61,30.22,30.03,14,0,114,0.00
2013-10-2,53.4,45.3,37.2,46.3,40.4,32.8,87,83,72,30.22,30.11,0,0,0,0.00
2013-10-3,56.8,46.1,37.0,48.6,40.1,33.2,89,80,65,30.42,30.20,0,0,0,0.00
2013-10-4,57.7,45.2,36.5,48.6,39.5,32.0,87,81,69,30.46,30.33,0,0,0,0.00
2013-10-5,64.6,47.8,36.3,50.5,41.0,31.9,86,78,58,30.34,30.14,0,0,0,0.00
2013-10-6,78.4,55.3,40.6,54.3,43.1,36.1,86,67,35,30.14,29.98,0,0,0,0.00
2013-10-7,62.6,53.5,48.2,50.1,45.1,40.3,84,74,58,30.19,30.02,0,0,0,0.04
2013-10-8,52.5,48.9,44.6,47.3,44.0,40.4,85,83,79,30.19,30.01,0,0,0,0.02
2013-10-9,56.3,46.2,41.2,46.2,40.4,37.0,87,81,66,30.09,29.99,0,0,0,0.02
2013-10-10,64.2,49.6,39.4,48.5,41.5,34.9,87,75,45,30.10,29.97,0,0,0,0.00
2013-10-11,57.2,51.4,46.6,45.9,42.9,40.0,81,73,61,30.15,30.08,0,0,0,0.00
2013-10-12,61.5,50.1,43.2,47.1,42.0,37.7,83,74,58,30.16,30.07,0,0,0,0.02
2013-10-13,57.4,46.3,41.2,47.2,40.3,35.7,83,80,69,30.29,30.15,0,0,0,0.02
2013-10-14,64.6,45.8,35.8,51.6,39.4,31.1,85,79,61,30.36,30.24,0,0,0,0.04
2013-10-15,67.3,47.2,34.5,48.6,38.3,29.8,85,72,50,30.29,30.12,0,0,0,0.02
2013-10-16,69.6,48.4,36.5,50.2,39.4,31.2,84,72,50,30.16,30.10,0,0,0,0.22
2013-10-17,63.7,46.7,37.0,51.4,39.8,31.5,84,77,60,30.22,30.13,0,0,0,0.02
2013-10-18,66.2,48.0,39.6,50.6,40.7,34.7,86,77,56,30.18,30.07,0,0,0,0.04
2013-10-19,70.5,49.4,37.2,53.6,41.3,31.9,85,74,53,30.16,30.08,0,0,0,0.04
2013-10-20,67.8,47.7,39.0,50.7,40.8,34.3,86,77,53,30.15,30.05,0,0,0,0.06
2013-10-21,67.1,47.9,40.3,53.2,41.9,35.3,87,80,61,30.10,29.98,0,0,0,0.06
2013-10-22,72.5,51.0,40.1,54.1,43.4,35.8,87,76,52,30.06,29.96,14,0,114,0.06
2013-10-23,68.9,50.9,40.8,55.2,43.7,36.0,87,77,60,30.03,29.95,0,0,0,0.00
2013-10-24,61.7,49.0,43.5,52.7,43.6,38.1,87,82,71,30.09,29.98,0,0,0,0.04
2013-10-25,50.0,48.2,43.0,46.0,44.3,37.8,88,86,82,30.27,30.08,0,0,0,0.04
2013-10-26,49.3,47.9,46.6,44.9,44.0,42.9,88,86,84,30.28,30.18,0,0,0,0.35
2013-10-27,54.7,48.8,45.0,49.6,44.0,39.2,87,83,78,30.19,29.83,0,0,0,0.41
2013-10-28,56.1,45.3,36.9,44.6,37.6,29.3,86,75,57,29.90,29.77,0,0,0,0.16
2013-10-29,60.6,40.2,30.0,41.9,31.1,24.8,83,71,49,30.08,29.88,0,0,0,0.20
2013-10-30,64.2,44.2,30.9,47.1,35.8,25.5,85,73,54,30.20,30.07,14,0,114,0.18
2013-10-31,57.9,52.3,46.2,49.6,45.8,38.0,86,79,68,30.27,30.19,0,0,0,0.02
2013-11-1,53.2,50.3,47.7,49.0,46.2,44.0,88,86,82,30.27,29.95,0,0,0,0.02
2013-11-2,56.7,49.8,44.2,48.0,43.9,38.1,88,80,65,30.15,29.83,0,0,0,0.08
2013-11-3,49.6,45.0,42.6,42.2,39.2,36.9,83,80,73,30.23,30.14,0,0,0,0.67
2013-11-4,45.1,43.5,43.0,39.7,38.5,38.1,83,83,81,30.21,30.17,0,0,0,0.63
2013-11-6,61.7,57.6,52.9,54.5,51.9,48.8,86,81,77,30.25,30.11,0,0,0,0.10
2013-11-7,55.6,50.9,44.2,51.2,46.1,39.4,87,84,80,30.19,29.97,0,0,0,0.02
2013-11-8,53.6,47.2,41.5,44.6,40.8,35.8,86,79,67,30.23,30.11,0,0,0,0.00
2013-11-9,51.4,45.3,40.6,43.1,39.8,36.4,86,81,73,30.11,30.04,0,0,0,0.02
2013-11-10,57.7,46.2,42.6,48.6,41.2,37.2,87,83,71,30.09,30.04,0,0,0,0.71
2013-11-11,46.2,43.8,41.5,42.9,40.4,37.9,88,87,87,30.15,30.03,0,0,0,0.31
2013-11-12,55.0,49.1,43.9,52.2,46.0,40.6,90,89,88,30.44,30.11,0,0,0,0.00
2013-11-13,49.6,47.8,45.7,46.5,44.6,42.4,90,89,87,30.48,30.29,0,0,0,0.00
2013-11-14,50.2,47.0,44.2,44.2,42.6,40.0,88,85,78,30.29,30.11,0,0,0,0.00
2013-11-15,48.6,44.5,41.4,43.6,39.8,37.4,88,83,78,30.11,29.71,0,0,0,0.00
2013-11-16,52.0,47.0,44.4,44.6,41.1,39.4,87,80,71,29.93,29.65,0,0,0,0.00
2013-11-17,54.7,48.1,44.4,43.1,40.4,38.3,83,75,64,30.08,29.93,0,0,0,0.00
2013-11-18,52.3,47.8,43.3,45.2,41.2,37.1,85,78,71,30.03,29.80,14,0,114,0.00
2013-11-19,54.3,49.3,40.5,50.2,45.1,34.4,87,86,79,30.00,29.77,0,0,0,0.00
2013-11-20,41.7,36.5,30.6,34.5,29.9,23.9,81,77,73,30.34,30.00,0,0,0,0.00
2013-11-21,43.3,31.5,24.6,27.4,22.1,18.4,77,69,52,30.55,30.34,0,0,0,0.22
2013-11-22,43.3,29.8,20.7,28.2,21.0,14.5,80,70,55,30.57,30.38,0,0,0,0.22
2013-11-23,46.4,31.9,22.6,31.0,23.1,16.8,80,70,55,30.37,30.16,0,0,0,0.00
2013-11-24,48.0,32.9,23.9,34.9,24.8,18.0,81,72,57,30.30,30.17,0,0,0,0.00
2013-11-25,47.3,33.1,24.6,38.4,26.5,19.1,83,77,67,30.38,30.30,0,0,0,0.00
2013-11-26,44.8,35.2,28.0,37.2,29.6,22.6,85,80,74,30.31,30.08,0,0,0,0.00
2013-11-27,46.0,35.9,29.7,39.2,30.0,25.1,85,79,68,30.08,29.96,0,0,0,0.00
2013-11-28,46.9,34.5,28.0,39.8,28.6,23.1,85,79,69,30.22,30.02,0,0,0,0.00
2013-11-29,47.8,37.2,26.4,39.5,31.5,21.9,85,80,72,30.39,30.23,0,0,0,0.02
2013-11-30,52.9,42.8,33.3,45.5,37.8,28.9,86,82,75,30.43,30.31,0,0,0,0.02
2013-12-1,56.5,52.7,46.6,49.6,46.7,41.6,85,80,77,30.32,30.05,0,0,0,0.00
2013-12-2,51.1,42.9,34.3,47.0,38.7,29.6,88,85,80,30.09,29.97,0,0,0,0.00
2013-12-3,37.9,33.1,26.4,33.8,28.7,20.6,87,84,77,30.25,30.07,0,0,0,0.00
2013-12-4,34.3,26.1,20.5,25.5,19.2,14.6,82,75,63,30.33,30.24,0,0,0,0.00
2013-12-5,30.2,23.4,16.5,21.4,16.4,10.8,80,74,67,30.32,30.16,0,0,0,0.00
2013-12-6,27.1,25.0,23.2,22.1,20.0,17.9,83,81,77,30.15,29.92,0,0,0,0.00
2013-12-7,24.6,18.2,8.4,18.0,10.7,1.5,80,72,63,30.45,30.03,0,0,0,0.00
2013-12-8,23.5,11.9,3.0,15.2,4.9,-3.2,78,73,68,30.62,30.44,0,0,0,0.00
2013-12-9,29.1,16.5,6.4,20.6,10.0,0.6,79,75,70,30.67,30.57,0,0,0,0.00
2013-12-10,31.5,21.6,13.8,24.9,15.9,8.2,82,79,76,30.59,30.44,0,0,0,0.00
2013-12-11,34.3,25.2,17.2,27.1,19.6,12.1,83,79,75,30.44,30.24,0,0,0,0.00
2013-12-12,38.5,29.3,18.7,34.2,24.9,13.7,89,84,80,30.27,30.15,0,0,0,0.00
2013-12-13,49.6,38.0,30.7,43.5,34.3,27.1,90,86,78,30.46,30.27,0,0,0,0.00
2013-12-14,45.0,35.1,29.3,40.4,31.4,25.9,89,86,83,30.50,30.41,14,0,114,0.00
2013-12-15,50.7,39.9,32.2,42.6,34.8,28.8,89,82,68,30.51,30.44,14,0,114,0.00
2013-12-16,39.9,38.5,36.0,36.6,34.8,31.2,88,86,83,30.49,30.27,0,0,0,0.00
2013-12-17,41.5,36.4,33.6,37.6,33.0,30.4,88,87,85,30.27,30.18,0,0,0,0.00
2013-12-18,39.4,36.6,34.2,36.1,33.3,30.9,88,88,87,30.21,30.06,0,0,0,0.00
2013-12-19,34.9,31.7,29.8,31.3,28.1,26.5,88,86,84,30.34,30.16,14,0,114,0.00
2013-12-20,45.1,36.4,31.1,41.8,32.1,27.1,89,85,80,30.28,30.01,0,0,0,0.00
2013-12-21,52.2,47.7,45.0,46.7,43.2,40.7,88,84,80,30.29,30.03,0,0,0,0.00
2013-12-22,57.6,47.6,41.5,48.9,42.6,37.0,88,83,73,30.39,30.28,0,0,0,0.00
2013-12-23,51.4,46.4,38.3,46.1,41.9,34.2,87,84,82,30.54,30.37,0,0,0,0.00
2013-12-24,38.1,35.6,33.6,34.0,32.2,30.1,88,87,85,30.60,30.49,0,0,0,0.00
2013-12-25,36.1,34.3,32.7,32.9,31.1,29.5,89,88,88,30.50,30.40,0,0,0,0.00
2013-12-26,33.8,32.2,30.7,30.8,29.3,27.6,89,89,88,30.43,30.25,14,0,114,5.20
2013-12-27,44.1,34.3,29.5,40.8,31.3,26.7,90,89,87,30.39,30.21,0,0,0,5.20
2013-12-28,37.2,35.5,33.1,34.2,32.4,30.2,89,89,87,30.52,30.39,0,0,0,0.00
2013-12-29,38.3,36.3,34.3,34.2,32.5,30.7,88,86,84,30.48,30.31,0,0,0,0.00
2013-12-30,45.0,37.7,34.3,40.1,34.0,30.8,88,86,83,30.31,30.21,0,0,0,0.00
2013-12-31,51.6,40.6,33.6,43.8,35.9,29.2,89,84,73,30.37,30.26,0,0,0,0.00
2014-1-1,37.8,35.4,32.7,34.5,31.8,28.4,88,87,84,30.39,30.29,0,0,0,0.00
2014-1-2,51.1,40.2,32.2,44.8,36.1,29.4,89,85,78,30.30,30.11,0,0,0,0.92